This is the latest recevied weather packets stored in our database for station/object SR3WXA. If no packets are shown the sender has not sent any weather packets the latest 10 day(s).
| Time | Temp. | Humidity | Pressure | Rain* | Wind** | Luminosity | Snow |
|---|---|---|---|---|---|---|---|
| 1778083071 | 15° C | 82% | 1006.6 hPa | 0 mm | - | 58 W/m² | - |
| 1778081926 | 16.11° C | 79% | 1006.5 hPa | 0 mm | - | 334 W/m² | - |
| 1778080692 | 17.22° C | 78% | 1006.2 hPa | 0 mm | - | 297 W/m² | - |
| 1778079192 | 17.78° C | 77% | 1006.1 hPa | 0 mm | - | 83 W/m² | - |
| 1778077382 | 17.22° C | 82% | 1005.8 hPa | 0 mm | - | 638 W/m² | - |
| 1778076158 | 17.22° C | 78% | 1005.8 hPa | 0 mm | - | 125 W/m² | - |
| 1778074643 | 17.22° C | 78% | 1005.6 hPa | 0 mm | - | 123 W/m² | - |
| 1778074608 | 17.22° C | 78% | 1005.6 hPa | 0 mm | - | 123 W/m² | - |
| 1778074342 | 17.22° C | 77% | 1005.6 hPa | 0 mm | - | 81 W/m² | - |
| 1778074008 | 17.22° C | 77% | 1005.6 hPa | 0 mm | - | 105 W/m² | - |
| 1778073409 | 17.22° C | 76% | 1005.5 hPa | 0 mm | - | 62 W/m² | - |
| 1778070671 | 17.78° C | 72% | 1005.4 hPa | 0 mm | - | 192 W/m² | - |
| 1778070370 | 17.78° C | 71% | 1005.3 hPa | 0 mm | - | 163 W/m² | - |
| 1778070071 | 18.33° C | 72% | 1005.4 hPa | 0 mm | - | 139 W/m² | - |
| 1778069770 | 17.78° C | 72% | 1005.3 hPa | 0 mm | - | 190 W/m² | - |
| 1778069470 | 17.78° C | 73% | 1005.4 hPa | 0 mm | - | 274 W/m² | - |
| 1778068870 | 17.22° C | 74% | 1005.3 hPa | 0 mm | - | 332 W/m² | - |
| 1778068270 | 17.22° C | 75% | 1005.2 hPa | 0 mm | - | 209 W/m² | - |
| 1778067970 | 17.22° C | 75% | 1005.4 hPa | 0 mm | - | 202 W/m² | - |
| 1778067370 | 17.22° C | 76% | 1005.4 hPa | 0 mm | - | 135 W/m² | - |
| 1778063828 | 16.67° C | 76% | 1005.3 hPa | 0 mm | - | 160 W/m² | - |
| 1778063796 | 16.67° C | 76% | 1005.3 hPa | 0 mm | - | 160 W/m² | - |
| 1778062639 | 16.67° C | 77% | 1005.4 hPa | 0 mm | - | 401 W/m² | - |
| 1778062596 | 16.67° C | 77% | 1005.4 hPa | 0 mm | - | 401 W/m² | - |
| 1778062331 | 16.11° C | 77% | 1005.3 hPa | 0 mm | - | 812 W/m² | - |
* Rain latest hour (hover to see other rain measurements)
** Current wind speed in m/s (hover to see current wind gust speed)